Time;durP1;ratioP1;P1;durP2;ratioP2;P2;SDS_P1;SDS_P2;PMS_P1;PMS_P2;Temp;Humidity;BMP_temperature;BMP_pressure;BME280_temperature;BME280_humidity;BME280_pressure;Samples;Min_cycle;Max_cycle;Signal;HPM_P1;HPM_P2
2023/03/28 00:00:37;;;;;;;0.08;0.08;;;1.30;34.20;;;;;;5007261;28;20049;-84
2023/03/28 00:03:03;;;;;;;0.00;0.00;;;1.30;35.20;;;;;;5057268;28;20075;-84
2023/03/28 00:05:30;;;;;;;0.00;0.00;;;1.20;35.40;;;;;;5056310;28;20045;-85
2023/03/28 00:07:56;;;;;;;0.00;0.00;;;1.20;31.10;;;;;;5056405;28;20051;-85
2023/03/28 00:10:22;;;;;;;0.00;0.00;;;1.20;29.10;;;;;;5039936;28;20401;-85
2023/03/28 00:12:48;;;;;;;0.25;0.25;;;1.20;37.10;;;;;;5040267;28;20102;-84
2023/03/28 00:15:14;;;;;;;0.00;0.00;;;1.30;41.10;;;;;;5023729;28;20140;-84
2023/03/28 00:17:40;;;;;;;0.00;0.00;;;1.30;35.80;;;;;;5006401;28;20099;-84
2023/03/28 00:20:09;;;;;;;0.00;0.00;;;1.20;33.50;;;;;;5056710;28;20465;-84
2023/03/28 00:22:36;;;;;;;2.35;0.85;;;1.20;32.90;;;;;;5056643;28;20053;-84
2023/03/28 00:25:06;;;;;;;0.00;0.00;;;1.20;32.40;;;;;;5023719;28;20047;-84
2023/03/28 00:27:33;;;;;;;0.00;0.00;;;1.10;30.30;;;;;;5055843;28;20110;-84
2023/03/28 00:30:00;;;;;;;0.73;0.52;;;1.10;30.10;;;;;;5055852;28;20053;-84
2023/03/28 00:32:26;;;;;;;0.00;0.00;;;1.70;27.50;;;;;;5055992;28;20052;-84
2023/03/28 00:34:52;;;;;;;0.00;0.00;;;1.10;31.60;;;;;;5055972;28;20044;-84
2023/03/28 00:37:18;;;;;;;0.32;0.32;;;1.10;35.40;;;;;;5039047;28;20045;-84
2023/03/28 00:39:50;;;;;;;0.00;0.00;;;1.10;39.40;;;;;;5039086;28;20099;-84
2023/03/28 00:42:21;;;;;;;3.90;1.60;;;1.20;41.40;;;;;;5039363;28;20051;-84
2023/03/28 00:44:52;;;;;;;0.17;0.17;;;1.10;41.30;;;;;;5039658;28;20049;-84
2023/03/28 00:47:26;;;;;;;0.00;0.00;;;1.10;37.70;;;;;;5039161;28;20412;-84
2023/03/28 00:50:13;;;;;;;0.00;0.00;;;1.10;35.80;;;;;;5056126;28;20098;-84
2023/03/28 00:52:49;;;;;;;0.00;0.00;;;1.10;36.80;;;;;;5039053;28;20140;-84
2023/03/28 00:55:22;;;;;;;0.00;0.00;;;1.10;38.10;;;;;;5055656;28;20138;-84
2023/03/28 00:57:49;;;;;;;0.05;0.05;;;1.00;35.30;;;;;;5038589;28;20127;-84
2023/03/28 01:00:17;;;;;;;0.00;0.00;;;1.00;42.10;;;;;;5055143;28;20103;-84
2023/03/28 01:02:49;;;;;;;0.17;0.17;;;1.10;44.00;;;;;;5038836;28;20060;-84
2023/03/28 01:05:17;;;;;;;0.00;0.00;;;1.10;43.10;;;;;;5055690;28;20056;-84
2023/03/28 01:07:48;;;;;;;0.00;0.00;;;1.10;41.10;;;;;;5055208;28;20045;-84
2023/03/28 01:10:14;;;;;;;0.00;0.00;;;1.00;44.40;;;;;;5039115;28;20499;-84
2023/03/28 01:12:42;;;;;;;0.00;0.00;;;1.20;45.50;;;;;;5054871;28;20037;-84
2023/03/28 01:15:09;;;;;;;0.00;0.00;;;1.10;47.80;;;;;;5055922;28;20053;-84
2023/03/28 01:17:35;;;;;;;0.00;0.00;;;1.10;44.80;;;;;;5038417;28;20550;-84
2023/03/28 01:20:21;;;;;;;0.00;0.00;;;1.10;43.40;;;;;;5055669;28;20053;-84
2023/03/28 01:23:21;;;;;;;0.00;0.00;;;1.00;46.00;;;;;;5055622;28;20393;-84
2023/03/28 01:26:19;;;;;;;0.75;0.00;;;1.00;46.80;;;;;;5038465;28;20052;-84
2023/03/28 01:28:51;;;;;;;0.00;0.00;;;1.00;44.10;;;;;;5021756;28;20060;-83
2023/03/28 01:31:55;;;;;;;0.00;0.00;;;1.00;44.70;;;;;;5054592;28;20131;-84
2023/03/28 01:34:24;;;;;;;0.00;0.00;;;1.00;45.40;;;;;;5054575;28;20076;-84
2023/03/28 01:36:58;;;;;;;0.00;0.00;;;1.00;49.80;;;;;;5054803;28;20040;-84
2023/03/28 01:39:50;;;;;;;0.67;0.30;;;1.00;46.90;;;;;;5054822;28;20106;-84
2023/03/28 01:42:32;;;;;;;0.00;0.00;;;0.90;48.40;;;;;;5037687;28;20052;-84
2023/03/28 01:45:26;;;;;;;0.00;0.00;;;1.00;46.20;;;;;;5054539;28;20120;-84
2023/03/28 01:48:23;;;;;;;0.00;0.00;;;0.90;47.10;;;;;;5055062;28;20080;-84
2023/03/28 01:50:56;;;;;;;0.00;0.00;;;0.90;47.20;;;;;;5054195;28;20048;-84
2023/03/28 01:53:34;;;;;;;0.00;0.00;;;0.90;51.00;;;;;;5053789;28;20049;-84
2023/03/28 01:56:52;;;;;;;0.00;0.00;;;0.90;53.50;;;;;;5054163;28;20045;-84
2023/03/28 01:59:33;;;;;;;0.00;0.00;;;0.90;51.90;;;;;;5033231;28;20140;-84
2023/03/28 02:02:08;;;;;;;0.00;0.00;;;0.80;53.60;;;;;;5038346;28;20053;-84
2023/03/28 02:04:37;;;;;;;0.17;0.17;;;0.80;54.50;;;;;;5054780;28;20053;-84
2023/03/28 02:07:04;;;;;;;0.00;0.00;;;0.80;52.80;;;;;;5037265;28;20053;-84
2023/03/28 02:09:32;;;;;;;0.00;0.00;;;0.80;54.50;;;;;;5037702;28;20104;-84
2023/03/28 02:12:14;;;;;;;0.10;0.10;;;0.70;56.80;;;;;;5054069;28;20048;-84
2023/03/28 02:14:42;;;;;;;0.00;0.00;;;0.70;56.50;;;;;;5054319;28;20389;-84
2023/03/28 02:17:15;;;;;;;0.55;0.55;;;0.80;56.00;;;;;;5053790;28;20041;-83
2023/03/28 02:19:53;;;;;;;0.00;0.00;;;0.70;59.10;;;;;;5053936;28;20135;-84
2023/03/28 02:22:45;;;;;;;0.00;0.00;;;0.70;58.70;;;;;;5054689;28;20084;-84
2023/03/28 02:25:11;;;;;;;0.00;0.00;;;0.70;58.70;;;;;;5051541;28;20195;-84
2023/03/28 02:27:38;;;;;;;0.00;0.00;;;0.70;59.50;;;;;;5053436;28;20049;-84
2023/03/28 02:30:07;;;;;;;0.00;0.00;;;0.70;57.90;;;;;;5037397;28;20057;-84
2023/03/28 02:32:32;;;;;;;0.00;0.00;;;0.60;60.30;;;;;;5020463;28;20135;-84
2023/03/28 02:35:00;;;;;;;0.00;0.00;;;0.70;58.10;;;;;;5054264;28;20145;-84
2023/03/28 02:37:37;;;;;;;0.00;0.00;;;0.70;60.40;;;;;;5053154;28;20088;-84
2023/03/28 02:40:29;;;;;;;0.00;0.00;;;0.70;60.80;;;;;;5036739;28;20147;-84
2023/03/28 02:43:01;;;;;;;0.00;0.00;;;0.70;63.60;;;;;;5053031;28;20123;-84
2023/03/28 02:46:07;;;;;;;0.00;0.00;;;0.60;65.40;;;;;;5036560;28;20045;-84
2023/03/28 02:49:05;;;;;;;0.00;0.00;;;0.60;66.40;;;;;;5036292;28;20084;-84
2023/03/28 02:52:13;;;;;;;0.00;0.00;;;0.50;67.10;;;;;;5052921;28;20099;-84
2023/03/28 02:54:48;;;;;;;0.00;0.00;;;0.60;69.60;;;;;;5036881;28;20087;-84
2023/03/28 02:57:38;;;;;;;2.17;0.52;;;0.50;70.00;;;;;;5053053;28;20044;-84
2023/03/28 03:00:10;;;;;;;0.00;0.00;;;0.50;69.50;;;;;;5036752;28;20107;-84
2023/03/28 03:02:38;;;;;;;0.00;0.00;;;0.50;66.10;;;;;;5052724;28;20041;-84
2023/03/28 03:05:05;;;;;;;0.00;0.00;;;0.50;67.40;;;;;;5051995;28;20045;-84
2023/03/28 03:07:31;;;;;;;0.00;0.00;;;0.50;70.00;;;;;;5053059;28;20053;-84
2023/03/28 03:09:57;;;;;;;0.00;0.00;;;0.50;69.40;;;;;;5036298;28;20065;-84
2023/03/28 03:12:27;;;;;;;0.00;0.00;;;0.50;67.60;;;;;;5052751;28;20511;-84
2023/03/28 03:14:53;;;;;;;0.00;0.00;;;0.50;67.20;;;;;;5019202;28;20041;-83
2023/03/28 03:17:19;;;;;;;0.20;0.20;;;0.50;69.50;;;;;;5035992;28;20115;-84
2023/03/28 03:19:45;;;;;;;0.00;0.00;;;0.60;70.90;;;;;;5054058;28;20049;-84
2023/03/28 03:22:11;;;;;;;0.00;0.00;;;0.60;73.80;;;;;;5019824;28;20055;-84
2023/03/28 03:24:38;;;;;;;0.00;0.00;;;0.60;74.70;;;;;;5036208;28;20056;-83
2023/03/28 03:27:03;;;;;;;0.00;0.00;;;0.60;72.30;;;;;;5036241;28;20049;-84
2023/03/28 03:29:29;;;;;;;0.00;0.00;;;0.70;71.60;;;;;;5052412;28;20041;-83
2023/03/28 03:31:55;;;;;;;0.00;0.00;;;0.70;71.20;;;;;;5053985;28;20049;-84
2023/03/28 03:34:23;;;;;;;0.00;0.00;;;0.70;71.30;;;;;;5036819;28;20480;-84
2023/03/28 03:36:51;;;;;;;1.35;0.47;;;0.60;72.10;;;;;;5019816;28;20075;-83
2023/03/28 03:39:17;;;;;;;0.00;0.00;;;0.80;71.80;;;;;;5052347;28;20396;-84
2023/03/28 03:41:43;;;;;;;0.00;0.00;;;0.80;76.50;;;;;;5035975;28;20053;-84
2023/03/28 03:44:09;;;;;;;0.63;0.63;;;0.80;70.40;;;;;;5053479;28;20423;-84
2023/03/28 03:46:34;;;;;;;0.00;0.00;;;0.80;70.40;;;;;;5019846;28;20045;-84
2023/03/28 03:49:00;;;;;;;0.00;0.00;;;0.80;73.90;;;;;;5052212;28;20085;-82
2023/03/28 03:51:26;;;;;;;0.00;0.00;;;0.80;73.30;;;;;;5052452;28;20049;-83
2023/03/28 03:53:51;;;;;;;0.00;0.00;;;0.90;74.40;;;;;;5035863;28;20048;-83
2023/03/28 03:56:17;;;;;;;0.00;0.00;;;0.80;68.80;;;;;;5036087;28;20045;-82
2023/03/28 03:58:43;;;;;;;0.00;0.00;;;0.80;72.20;;;;;;5036598;28;20148;-83
2023/03/28 04:01:12;;;;;;;0.10;0.00;;;0.70;73.40;;;;;;5052138;28;20053;-83
2023/03/28 04:03:40;;;;;;;0.00;0.00;;;0.70;75.60;;;;;;5019768;28;20057;-83
2023/03/28 04:06:06;;;;;;;0.00;0.00;;;0.70;73.90;;;;;;5052387;28;20052;-83
2023/03/28 04:08:32;;;;;;;0.00;0.00;;;0.70;75.10;;;;;;5052927;28;20140;-82
2023/03/28 04:10:57;;;;;;;0.00;0.00;;;0.60;76.40;;;;;;5035715;28;20477;-83
2023/03/28 04:13:23;;;;;;;0.00;0.00;;;0.60;76.50;;;;;;5053758;28;20051;-83
2023/03/28 04:15:49;;;;;;;0.00;0.00;;;0.60;76.20;;;;;;5052183;28;20045;-83
2023/03/28 04:18:16;;;;;;;0.00;0.00;;;0.60;77.40;;;;;;5022393;28;20057;-83
2023/03/28 04:20:45;;;;;;;0.00;0.00;;;0.60;77.80;;;;;;5055755;28;20100;-83
2023/03/28 04:23:11;;;;;;;0.00;0.00;;;0.60;78.60;;;;;;5056392;28;20048;-83
2023/03/28 04:25:40;;;;;;;0.00;0.00;;;0.60;80.40;;;;;;5039478;28;20382;-83
2023/03/28 04:28:08;;;;;;;0.40;0.00;;;0.70;79.50;;;;;;5038702;28;20094;-83
2023/03/28 04:30:34;;;;;;;0.00;0.00;;;0.70;79.20;;;;;;5038971;28;20522;-82
2023/03/28 04:33:00;;;;;;;0.00;0.00;;;0.70;79.50;;;;;;5055372;28;20469;-83
2023/03/28 04:35:28;;;;;;;1.35;0.43;;;0.60;77.40;;;;;;5039749;28;20056;-83
2023/03/28 04:37:56;;;;;;;0.70;0.70;;;0.70;81.60;;;;;;5022707;28;20496;-83
2023/03/28 04:40:23;;;;;;;0.00;0.00;;;0.70;79.50;;;;;;5038573;28;20175;-82
2023/03/28 04:42:49;;;;;;;2.35;0.10;;;0.70;79.70;;;;;;5056261;28;20084;-83
2023/03/28 04:45:14;;;;;;;0.10;0.10;;;0.60;79.90;;;;;;5055361;28;20134;-83
2023/03/28 04:47:40;;;;;;;0.00;0.00;;;0.70;83.70;;;;;;5055481;28;20592;-83
2023/03/28 04:50:08;;;;;;;0.00;0.00;;;0.70;83.60;;;;;;5055398;28;20053;-83
2023/03/28 04:52:34;;;;;;;0.00;0.00;;;0.70;85.70;;;;;;5055995;28;20132;-83
2023/03/28 04:55:00;;;;;;;0.00;0.00;;;0.70;83.50;;;;;;5055524;28;20041;-83
2023/03/28 04:57:26;;;;;;;0.00;0.00;;;0.70;84.80;;;;;;5055150;28;20128;-83
2023/03/28 04:59:52;;;;;;;0.00;0.00;;;0.80;86.40;;;;;;5055238;28;20144;-83
2023/03/28 05:02:18;;;;;;;0.00;0.00;;;0.80;89.70;;;;;;5054912;28;20454;-83
2023/03/28 05:04:44;;;;;;;0.00;0.00;;;0.80;86.80;;;;;;5021953;28;20088;-83
2023/03/28 05:07:10;;;;;;;0.10;0.10;;;0.90;87.10;;;;;;5038689;28;20117;-82
2023/03/28 05:09:36;;;;;;;0.00;0.00;;;0.90;87.20;;;;;;5022498;28;20132;-82
2023/03/28 05:12:02;;;;;;;0.00;0.00;;;0.90;86.50;;;;;;5055002;28;20049;-83
2023/03/28 05:14:28;;;;;;;0.00;0.00;;;0.90;90.20;;;;;;5054945;28;20366;-82
2023/03/28 05:16:54;;;;;;;0.00;0.00;;;1.00;90.10;;;;;;5038949;28;20040;-83
2023/03/28 05:19:21;;;;;;;0.00;0.00;;;1.00;90.60;;;;;;5054041;28;20481;-83
2023/03/28 05:21:47;;;;;;;0.00;0.00;;;1.00;91.20;;;;;;5022836;28;20048;-82
2023/03/28 05:24:15;;;;;;;0.00;0.00;;;1.10;90.30;;;;;;5037962;28;20369;-82
2023/03/28 05:26:41;;;;;;;0.00;0.00;;;1.10;90.60;;;;;;5054659;28;20140;-82
2023/03/28 05:29:07;;;;;;;0.17;0.17;;;1.20;91.20;;;;;;5054289;28;20153;-83
2023/03/28 05:31:33;;;;;;;0.00;0.00;;;1.30;91.30;;;;;;5038065;28;20057;-82
2023/03/28 05:33:59;;;;;;;0.00;0.00;;;1.30;91.30;;;;;;5038049;28;20102;-84
2023/03/28 05:36:24;;;;;;;1.67;0.10;;;1.30;91.10;;;;;;5005506;28;20045;-83
2023/03/28 05:38:50;;;;;;;0.00;0.00;;;1.40;91.20;;;;;;5054646;28;20049;-82
2023/03/28 05:41:16;;;;;;;0.00;0.00;;;1.50;91.50;;;;;;5038054;28;20052;-83
2023/03/28 05:43:48;;;;;;;0.00;0.00;;;1.50;90.90;;;;;;5054554;28;20481;-84
2023/03/28 05:46:14;;;;;;;0.00;0.00;;;1.60;91.80;;;;;;5055206;28;20479;-83
2023/03/28 05:48:40;;;;;;;0.00;0.00;;;1.60;91.50;;;;;;5037898;28;20080;-83
2023/03/28 05:51:06;;;;;;;0.00;0.00;;;1.70;92.00;;;;;;5037979;28;20056;-83
2023/03/28 05:53:31;;;;;;;0.15;0.00;;;1.70;92.20;;;;;;5037728;28;20128;-82
2023/03/28 05:55:57;;;;;;;0.00;0.00;;;1.90;91.20;;;;;;5037613;28;20060;-83
2023/03/28 05:58:23;;;;;;;0.00;0.00;;;1.70;91.00;;;;;;5054429;28;20080;-83
2023/03/28 06:00:49;;;;;;;0.00;0.00;;;1.80;91.00;;;;;;5038165;28;20049;-83
2023/03/28 06:03:15;;;;;;;0.00;0.00;;;1.80;91.00;;;;;;5021758;28;20045;-83
2023/03/28 06:05:41;;;;;;;0.00;0.00;;;1.90;91.00;;;;;;5038713;28;20045;-82
2023/03/28 06:08:08;;;;;;;0.00;0.00;;;1.90;90.40;;;;;;5057452;28;20127;-82
2023/03/28 06:10:34;;;;;;;0.00;0.00;;;2.00;90.10;;;;;;5023192;28;20056;-83
2023/03/28 06:13:00;;;;;;;0.10;0.10;;;1.90;90.90;;;;;;5037753;28;20500;-83
2023/03/28 06:15:26;;;;;;;0.15;0.10;;;2.10;91.00;;;;;;5037175;28;20053;-83
2023/03/28 06:17:52;;;;;;;0.00;0.00;;;2.20;91.30;;;;;;5054083;28;20091;-83
2023/03/28 06:20:17;;;;;;;0.00;0.00;;;2.40;91.90;;;;;;5054524;28;20098;-82
2023/03/28 06:22:43;;;;;;;0.00;0.00;;;2.70;93.00;;;;;;5053384;28;20204;-83
2023/03/28 06:25:10;;;;;;;0.00;0.00;;;2.90;91.70;;;;;;5053537;28;20098;-82
2023/03/28 06:27:35;;;;;;;0.00;0.00;;;3.10;81.70;;;;;;5036633;28;20053;-83
2023/03/28 06:30:03;;;;;;;0.00;0.00;;;3.10;81.30;;;;;;5036967;28;20041;-83
2023/03/28 06:32:29;;;;;;;0.10;0.00;;;3.00;78.90;;;;;;5037182;28;20044;-83
2023/03/28 06:34:55;;;;;;;0.00;0.00;;;3.00;80.80;;;;;;5054263;28;20056;-83
2023/03/28 06:37:21;;;;;;;0.00;0.00;;;3.10;80.80;;;;;;5020409;28;20037;-82
2023/03/28 06:39:49;;;;;;;0.00;0.00;;;3.10;81.00;;;;;;5053268;28;20095;-82
2023/03/28 06:42:15;;;;;;;0.00;0.00;;;3.00;79.20;;;;;;5037841;28;20044;-83
2023/03/28 06:44:41;;;;;;;0.00;0.00;;;3.10;75.10;;;;;;5053282;28;20123;-82
2023/03/28 06:47:07;;;;;;;0.00;0.00;;;3.10;82.90;;;;;;5053838;28;20132;-83
2023/03/28 06:49:33;;;;;;;0.00;0.00;;;3.10;79.90;;;;;;5036387;28;20068;-82
2023/03/28 06:51:58;;;;;;;0.00;0.00;;;3.20;81.30;;;;;;5053126;28;20538;-83
2023/03/28 06:54:24;;;;;;;0.00;0.00;;;3.20;82.70;;;;;;5036234;28;20102;-82
2023/03/28 06:56:50;;;;;;;0.00;0.00;;;3.30;83.00;;;;;;5020058;28;20086;-83
2023/03/28 06:59:15;;;;;;;0.00;0.00;;;3.40;82.40;;;;;;5052961;28;20123;-83
2023/03/28 07:01:41;;;;;;;0.08;0.03;;;3.70;84.20;;;;;;5053396;28;20084;-82
2023/03/28 07:04:07;;;;;;;0.00;0.00;;;3.60;80.50;;;;;;5052906;28;20045;-82
2023/03/28 07:06:33;;;;;;;0.10;0.10;;;3.60;79.60;;;;;;5020580;28;20053;-82
2023/03/28 07:08:59;;;;;;;0.00;0.00;;;3.70;83.70;;;;;;5003317;28;20037;-83
2023/03/28 07:11:28;;;;;;;0.00;0.00;;;3.80;82.40;;;;;;5052622;28;20087;-83
2023/03/28 07:13:54;;;;;;;0.00;0.00;;;3.80;80.10;;;;;;5053784;28;20084;-82
2023/03/28 07:16:19;;;;;;;0.00;0.00;;;3.90;79.80;;;;;;5053544;28;20045;-83
2023/03/28 07:18:45;;;;;;;0.00;0.00;;;4.10;80.80;;;;;;5052396;28;20087;-84
2023/03/28 07:21:14;;;;;;;0.60;0.52;;;4.20;79.80;;;;;;5036413;28;20061;-83
2023/03/28 07:23:40;;;;;;;0.00;0.00;;;4.40;69.20;;;;;;5052707;28;20493;-83
2023/03/28 07:26:07;;;;;;;0.10;0.10;;;4.50;73.50;;;;;;5053027;28;20056;-83
2023/03/28 07:28:34;;;;;;;0.52;0.20;;;4.60;71.80;;;;;;5019639;28;20052;-83
2023/03/28 07:31:01;;;;;;;0.00;0.00;;;4.70;67.90;;;;;;5053210;28;20041;-83
2023/03/28 07:33:27;;;;;;;9.32;1.55;;;4.80;61.30;;;;;;5052436;28;20053;-83
2023/03/28 07:35:53;;;;;;;0.00;0.00;;;5.00;53.30;;;;;;5052855;28;20443;-84
2023/03/28 07:38:19;;;;;;;1.50;0.22;;;5.10;51.50;;;;;;5053509;28;20092;-83
2023/03/28 07:40:44;;;;;;;0.55;0.20;;;5.20;47.80;;;;;;5052606;28;20133;-84
2023/03/28 07:43:10;;;;;;;0.00;0.00;;;5.80;69.70;;;;;;5052556;28;20048;-81
2023/03/28 07:45:36;;;;;;;0.00;0.00;;;6.70;32.00;;;;;;5052130;28;20045;-81
2023/03/28 07:48:03;;;;;;;0.00;0.00;;;7.20;17.40;;;;;;5052969;28;20041;-81
2023/03/28 07:50:29;;;;;;;0.00;0.00;;;7.40;1.00;;;;;;5035873;28;20080;-81
2023/03/28 07:52:58;;;;;;;0.00;0.00;;;7.60;1.00;;;;;;5056035;28;20058;-82
2023/03/28 07:55:25;;;;;;;0.47;0.20;;;7.80;1.00;;;;;;5039708;28;20041;-82
2023/03/28 07:57:52;;;;;;;0.00;0.00;;;7.70;1.00;;;;;;5056374;28;20045;-82
2023/03/28 08:00:18;;;;;;;0.00;0.00;;;7.70;1.00;;;;;;5040064;28;20037;-81
2023/03/28 08:02:43;;;;;;;0.00;0.00;;;7.60;1.00;;;;;;5040351;28;20148;-82
2023/03/28 08:05:09;;;;;;;0.00;0.00;;;7.70;1.00;;;;;;5057241;28;20140;-82
2023/03/28 08:07:35;;;;;;;0.00;0.00;;;7.80;1.00;;;;;;5040318;28;20041;-82
2023/03/28 08:10:01;;;;;;;0.63;0.52;;;7.70;1.00;;;;;;5056927;28;20049;-82
2023/03/28 08:12:28;;;;;;;0.00;0.00;;;7.70;1.00;;;;;;5039482;28;20182;-82
2023/03/28 08:14:54;;;;;;;0.00;0.00;;;7.70;1.00;;;;;;5056157;28;20041;-82
2023/03/28 08:17:20;;;;;;;0.00;0.00;;;7.70;1.00;;;;;;5055738;28;20044;-81
2023/03/28 08:19:46;;;;;;;0.13;0.13;;;7.80;1.00;;;;;;5039731;28;20079;-81
2023/03/28 08:22:12;;;;;;;0.57;0.57;;;7.90;1.00;;;;;;5039217;28;20045;-82
2023/03/28 08:24:39;;;;;;;0.00;0.00;;;7.80;99.90;;;;;;5039473;28;20041;-82
2023/03/28 08:27:04;;;;;;;0.00;0.00;;;7.90;1.00;;;;;;5022853;28;20052;-81
2023/03/28 08:29:30;;;;;;;0.10;0.00;;;7.80;1.00;;;;;;5023107;28;20045;-81
2023/03/28 08:31:56;;;;;;;0.00;0.00;;;7.70;99.90;;;;;;5056871;28;20047;-82
2023/03/28 08:34:22;;;;;;;0.00;0.00;;;7.70;99.90;;;;;;5038736;28;20103;-82
2023/03/28 08:36:48;;;;;;;0.22;0.22;;;7.70;99.90;;;;;;5022573;28;20052;-82
2023/03/28 08:39:14;;;;;;;0.00;0.00;;;7.90;99.90;;;;;;5056296;28;20048;-82
2023/03/28 08:41:53;;;;;;;0.03;0.03;;;7.90;99.90;;;;;;5055505;28;20468;-82
2023/03/28 08:44:36;;;;;;;0.03;0.00;;;7.90;99.90;;;;;;5056149;28;20048;-82
2023/03/28 08:47:10;;;;;;;0.00;0.00;;;7.90;99.90;;;;;;5055782;28;20057;-82
2023/03/28 08:49:52;;;;;;;0.00;0.00;;;8.00;99.90;;;;;;5055205;28;20544;-82
2023/03/28 08:52:19;;;;;;;0.10;0.10;;;8.10;99.90;;;;;;5055635;28;20088;-82
2023/03/28 08:54:57;;;;;;;0.00;0.00;;;8.10;99.90;;;;;;5055550;28;20049;-82
2023/03/28 08:57:33;;;;;;;15.45;0.80;;;8.10;99.90;;;;;;5055477;28;20480;-82
2023/03/28 09:00:14;;;;;;;0.00;0.00;;;8.20;99.90;;;;;;5055103;28;20124;-82
2023/03/28 09:02:41;;;;;;;0.45;0.25;;;8.50;99.90;;;;;;5038370;28;20067;-82
2023/03/28 09:05:21;;;;;;;0.00;0.00;;;8.70;1.00;;;;;;5021862;28;20087;-82
2023/03/28 09:08:05;;;;;;;0.20;0.20;;;8.80;1.00;;;;;;5054942;28;20041;-82
2023/03/28 09:10:40;;;;;;;0.00;0.00;;;9.00;99.90;;;;;;5038666;28;20485;-81
2023/03/28 09:13:06;;;;;;;0.20;0.20;;;9.30;98.10;;;;;;5054734;28;20049;-82
2023/03/28 09:16:23;;;;;;;0.00;0.00;;;9.40;90.50;;;;;;5054841;28;20053;-81
2023/03/28 09:18:59;;;;;;;0.00;0.00;;;9.30;99.90;;;;;;5032266;28;20401;-82
2023/03/28 09:21:55;;;;;;;0.00;0.00;;;9.10;99.90;;;;;;5054741;28;20472;-82
2023/03/28 09:24:52;;;;;;;0.00;0.00;;;8.90;99.90;;;;;;5055495;28;20139;-82
2023/03/28 09:27:26;;;;;;;0.10;0.10;;;9.10;99.90;;;;;;5055591;28;20049;-82
2023/03/28 09:29:57;;;;;;;0.00;0.00;;;9.00;1.00;;;;;;5054649;28;20043;-82
2023/03/28 09:32:31;;;;;;;0.00;0.00;;;9.10;99.90;;;;;;5054898;28;20040;-81
2023/03/28 09:34:58;;;;;;;0.00;0.00;;;9.50;99.90;;;;;;5055284;28;20044;-82
2023/03/28 09:37:37;;;;;;;0.00;0.00;;;9.80;1.00;;;;;;5054149;28;20055;-82
2023/03/28 09:40:18;;;;;;;0.00;0.00;;;10.10;1.00;;;;;;5055175;28;20377;-82
2023/03/28 09:43:03;;;;;;;0.00;0.00;;;10.30;99.90;;;;;;5038033;28;20057;-82
2023/03/28 09:45:39;;;;;;;0.00;0.00;;;10.50;99.90;;;;;;5054489;28;20140;-82
2023/03/28 09:48:18;;;;;;;0.00;0.00;;;10.60;99.90;;;;;;5038318;28;20067;-82
2023/03/28 09:50:44;;;;;;;0.00;0.00;;;10.80;99.90;;;;;;5054425;28;20132;-82
2023/03/28 09:53:21;;;;;;;0.00;0.00;;;10.90;99.90;;;;;;5037719;28;20139;-82
2023/03/28 09:55:47;;;;;;;0.00;0.00;;;10.60;99.90;;;;;;5054469;28;20041;-82
2023/03/28 09:58:17;;;;;;;0.00;0.00;;;10.70;99.90;;;;;;5053780;28;20114;-82
2023/03/28 10:00:47;;;;;;;0.00;0.00;;;11.20;99.90;;;;;;5053699;28;20056;-82
2023/03/28 10:03:31;;;;;;;0.00;0.00;;;11.20;99.90;;;;;;5054889;28;20618;-81
2023/03/28 10:06:17;;;;;;;0.00;0.00;;;10.90;99.90;;;;;;5055164;28;20051;-82
2023/03/28 10:08:43;;;;;;;0.00;0.00;;;10.50;99.90;;;;;;5055305;28;20052;-82
2023/03/28 10:11:18;;;;;;;0.00;0.00;;;10.20;99.90;;;;;;5053808;28;20432;-82
2023/03/28 10:13:49;;;;;;;0.00;0.00;;;9.90;99.90;;;;;;5055349;28;20049;-82
2023/03/28 10:16:28;;;;;;;0.00;0.00;;;9.80;99.90;;;;;;5053857;28;20049;-82
2023/03/28 10:18:54;;;;;;;1.77;0.32;;;9.60;99.90;;;;;;5036625;28;20051;-82
2023/03/28 10:21:23;;;;;;;0.00;0.00;;;9.50;99.90;;;;;;5053941;28;20469;-82
2023/03/28 10:24:01;;;;;;;0.00;0.00;;;9.70;99.90;;;;;;5053511;28;20094;-82
2023/03/28 10:26:28;;;;;;;0.45;0.20;;;9.90;99.90;;;;;;5053722;28;20074;-81
2023/03/28 10:28:58;;;;;;;0.00;0.00;;;10.30;99.90;;;;;;5053221;28;20520;-81
2023/03/28 10:31:28;;;;;;;0.00;0.00;;;10.60;99.90;;;;;;5053299;28;20059;-83
2023/03/28 10:33:56;;;;;;;0.00;0.00;;;10.70;99.90;;;;;;5054373;28;20061;-81
2023/03/28 10:36:36;;;;;;;0.08;0.08;;;10.70;99.90;;;;;;5054277;28;20131;-81
2023/03/28 10:39:23;;;;;;;0.00;0.00;;;10.50;99.90;;;;;;5053189;28;20132;-82
2023/03/28 10:41:53;;;;;;;0.00;0.00;;;10.40;99.90;;;;;;5054298;28;20053;-82
2023/03/28 10:44:29;;;;;;;0.00;0.00;;;10.60;99.90;;;;;;5053459;28;20108;-81
2023/03/28 10:47:16;;;;;;;0.00;0.00;;;10.70;99.90;;;;;;5053106;28;20530;-82
2023/03/28 10:49:49;;;;;;;0.15;0.15;;;10.70;99.90;;;;;;5053030;28;20045;-82
2023/03/28 10:52:41;;;;;;;0.00;0.00;;;10.80;99.90;;;;;;5053363;28;20055;-82
2023/03/28 10:55:18;;;;;;;0.08;0.05;;;10.90;99.90;;;;;;5053311;28;20048;-82
2023/03/28 10:58:04;;;;;;;0.00;0.00;;;10.70;99.90;;;;;;5052980;28;20480;-82
2023/03/28 11:00:43;;;;;;;0.10;0.10;;;10.70;99.90;;;;;;5037117;28;20102;-82
2023/03/28 11:03:22;;;;;;;0.00;0.00;;;10.40;99.90;;;;;;5053852;28;20375;-82
2023/03/28 11:05:56;;;;;;;0.00;0.00;;;10.20;99.90;;;;;;5053890;28;20053;-82
2023/03/28 11:08:43;;;;;;;0.00;0.00;;;10.10;99.90;;;;;;5054330;28;20049;-82
2023/03/28 11:11:30;;;;;;;0.00;0.00;;;10.10;99.90;;;;;;5036544;28;20106;-82
2023/03/28 11:14:14;;;;;;;0.00;0.00;;;10.10;99.90;;;;;;5053147;28;20052;-82
2023/03/28 11:16:55;;;;;;;0.05;0.05;;;10.20;99.90;;;;;;5036108;28;20485;-83
2023/03/28 11:19:44;;;;;;;0.30;0.30;;;10.50;99.90;;;;;;5035663;28;20576;-82
2023/03/28 11:22:29;;;;;;;0.03;0.00;;;10.70;99.90;;;;;;5036986;28;20095;-83
2023/03/28 11:25:22;;;;;;;0.00;0.00;;;10.90;99.90;;;;;;5036514;28;20052;-82
2023/03/28 11:28:15;;;;;;;0.00;0.00;;;10.80;99.90;;;;;;5035882;28;20183;-82
2023/03/28 11:30:46;;;;;;;0.00;0.00;;;10.80;99.90;;;;;;5036496;28;20078;-82
2023/03/28 11:33:17;;;;;;;0.00;0.00;;;10.70;99.90;;;;;;5054889;28;20053;-82
2023/03/28 11:35:51;;;;;;;0.00;0.00;;;10.80;99.90;;;;;;5037563;28;20076;-83
2023/03/28 11:38:35;;;;;;;0.00;0.00;;;10.80;99.90;;;;;;5052843;28;20493;-83
2023/03/28 11:41:17;;;;;;;0.25;0.25;;;10.80;99.90;;;;;;5035993;28;20049;-83
2023/03/28 11:43:48;;;;;;;0.00;0.00;;;10.80;85.70;;;;;;5052939;28;20049;-82
2023/03/28 11:46:21;;;;;;;0.00;0.00;;;10.50;88.90;;;;;;5052789;28;20485;-83
2023/03/28 11:49:22;;;;;;;0.00;0.00;;;10.50;92.50;;;;;;5052744;28;20052;-83
2023/03/28 11:52:05;;;;;;;0.00;0.00;;;10.30;86.20;;;;;;5045130;28;20107;-83
2023/03/28 11:54:42;;;;;;;14.55;1.42;;;10.30;91.80;;;;;;5053028;28;20476;-83
2023/03/28 11:57:47;;;;;;;0.10;0.00;;;10.30;91.50;;;;;;5053213;28;20045;-83
2023/03/28 12:00:43;;;;;;;0.00;0.00;;;10.40;93.50;;;;;;5020351;28;20419;-83
2023/03/28 12:03:22;;;;;;;0.00;0.00;;;10.50;91.10;;;;;;5052676;28;20047;-83
2023/03/28 12:06:00;;;;;;;0.00;0.00;;;10.60;94.70;;;;;;5036064;28;20044;-83
2023/03/28 12:08:32;;;;;;;1.40;0.00;;;10.60;90.60;;;;;;5052489;28;20036;-83
2023/03/28 12:11:06;;;;;;;0.22;0.22;;;10.50;89.60;;;;;;5036379;28;20487;-83
2023/03/28 12:14:05;;;;;;;0.00;0.00;;;10.50;91.30;;;;;;5053380;28;20048;-83
2023/03/28 12:16:36;;;;;;;0.00;0.00;;;10.30;83.00;;;;;;5053768;28;20114;-83
2023/03/28 12:19:09;;;;;;;0.00;0.00;;;10.30;79.70;;;;;;5052469;28;20107;-83
2023/03/28 12:21:42;;;;;;;0.20;0.20;;;10.40;89.70;;;;;;5053327;28;20043;-83
2023/03/28 12:24:28;;;;;;;0.00;0.00;;;10.30;77.70;;;;;;5035697;28;20055;-83
2023/03/28 12:27:30;;;;;;;0.00;0.00;;;10.50;77.50;;;;;;5052871;28;20465;-83
2023/03/28 12:30:21;;;;;;;0.00;0.00;;;10.80;74.10;;;;;;5052838;28;20172;-83
2023/03/28 12:33:22;;;;;;;0.30;0.00;;;11.20;80.70;;;;;;5047206;28;20061;-83
2023/03/28 12:35:55;;;;;;;0.10;0.08;;;11.00;58.80;;;;;;5053904;28;20373;-83
2023/03/28 12:38:34;;;;;;;0.47;0.10;;;11.30;76.60;;;;;;5054258;28;20060;-83
2023/03/28 12:41:05;;;;;;;0.00;0.00;;;11.40;62.90;;;;;;5056101;28;20041;-83
2023/03/28 12:44:01;;;;;;;0.00;0.00;;;11.30;43.30;;;;;;5039013;28;20053;-83
2023/03/28 12:46:33;;;;;;;0.00;0.00;;;11.40;44.20;;;;;;5048021;28;20179;-83
2023/03/28 12:49:11;;;;;;;0.00;0.00;;;11.60;62.10;;;;;;5055026;28;20044;-83
2023/03/28 12:51:51;;;;;;;0.00;0.00;;;11.60;46.30;;;;;;5055630;28;20053;-83
2023/03/28 12:54:23;;;;;;;0.00;0.00;;;11.60;49.70;;;;;;5055778;28;20049;-83
2023/03/28 12:57:13;;;;;;;0.00;0.00;;;11.60;47.10;;;;;;5055313;28;20056;-83
2023/03/28 12:59:40;;;;;;;0.47;0.10;;;11.50;49.20;;;;;;5038935;28;20445;-83
2023/03/28 13:02:14;;;;;;;0.10;0.10;;;11.30;49.10;;;;;;5039483;28;20045;-83
2023/03/28 13:04:54;;;;;;;;;;;11.00;27.10;;;;;;5055517;28;20060;-83
2023/03/28 13:07:34;;;;;;;0.10;0.00;;;11.00;30.00;;;;;;5056013;28;20061;-83
2023/03/28 13:10:23;;;;;;;0.00;0.00;;;10.70;24.90;;;;;;5054854;28;20477;-83
2023/03/28 13:13:15;;;;;;;0.00;0.00;;;10.60;27.90;;;;;;5054757;28;20049;-83
2023/03/28 13:15:59;;;;;;;7.05;0.85;;;10.70;39.40;;;;;;5038585;28;20041;-83
2023/03/28 13:18:30;;;;;;;1.10;0.43;;;10.80;33.40;;;;;;5054245;28;20053;-83
2023/03/28 13:20:58;;;;;;;0.20;0.20;;;10.90;32.60;;;;;;5038187;28;20064;-83
2023/03/28 13:23:30;;;;;;;0.00;0.00;;;10.70;25.50;;;;;;5038290;28;20056;-83